createdAt,value
2022-08-05T00:02:14.576Z,2.90
2022-08-05T00:05:05.791Z,1.90
2022-08-05T00:08:00.825Z,2.15
2022-08-05T00:10:48.225Z,2.20
2022-08-05T00:13:38.462Z,2.08
2022-08-05T00:16:35.641Z,1.92
2022-08-05T00:19:24.868Z,1.90
2022-08-05T00:22:20.052Z,1.77
2022-08-05T00:25:08.355Z,1.90
2022-08-05T00:28:00.064Z,2.00
2022-08-05T00:30:47.256Z,2.10
2022-08-05T00:34:53.755Z,1.90
2022-08-05T00:37:10.486Z,1.88
2022-08-05T00:39:58.413Z,1.95
2022-08-05T00:42:49.089Z,1.95
2022-08-05T00:45:43.039Z,2.10
2022-08-05T00:48:31.673Z,1.95
2022-08-05T00:51:50.775Z,1.98
2022-08-05T00:57:15.216Z,1.95
2022-08-05T01:00:11.105Z,2.00
2022-08-05T01:02:59.960Z,2.10
2022-08-05T01:05:46.900Z,1.83
2022-08-05T01:08:43.333Z,2.05
2022-08-05T01:11:37.260Z,2.03
2022-08-05T01:14:33.606Z,1.80
2022-08-05T01:17:24.422Z,1.70
2022-08-05T01:20:34.550Z,1.83
2022-08-05T01:23:42.633Z,1.83
2022-08-05T01:26:35.627Z,1.80
2022-08-05T01:29:28.678Z,1.75
2022-08-05T01:32:20.780Z,2.05
2022-08-05T01:35:13.157Z,1.92
2022-08-05T01:38:26.967Z,1.55
2022-08-05T01:41:16.749Z,1.80
2022-08-05T01:44:09.601Z,1.83
2022-08-05T01:46:57.985Z,1.80
2022-08-05T01:50:01.567Z,1.70
2022-08-05T01:52:50.381Z,1.63
2022-08-05T01:55:38.188Z,1.70
2022-08-05T01:58:40.284Z,1.92
2022-08-05T02:01:37.982Z,1.80
2022-08-05T02:04:30.022Z,1.92
2022-08-05T02:07:22.228Z,2.00
2022-08-05T02:10:09.935Z,1.70
2022-08-05T02:13:16.208Z,1.88
2022-08-05T02:16:05.980Z,1.73
2022-08-05T02:18:54.559Z,1.95
2022-08-05T02:21:46.968Z,1.80
2022-08-05T02:24:38.260Z,1.70
2022-08-05T02:27:30.226Z,1.60
2022-08-05T02:30:58.453Z,1.58
2022-08-05T02:33:57.638Z,1.80
2022-08-05T02:36:49.227Z,1.63
2022-08-05T02:39:37.309Z,1.70
2022-08-05T02:42:33.057Z,1.88
2022-08-05T02:45:25.267Z,2.10
2022-08-05T02:48:12.958Z,1.70
2022-08-05T02:51:01.132Z,1.90
2022-08-05T02:53:48.593Z,1.75
2022-08-05T02:56:46.046Z,1.70
2022-08-05T02:59:34.665Z,2.00
2022-08-05T03:02:39.180Z,1.85
2022-08-05T03:06:54.483Z,2.10
2022-08-05T03:08:33.766Z,2.00
2022-08-05T03:11:54.469Z,1.85
2022-08-05T03:14:29.724Z,2.05
2022-08-05T03:17:17.633Z,1.90
2022-08-05T03:20:07.375Z,2.05
2022-08-05T03:22:57.959Z,1.95
2022-08-05T03:26:04.982Z,2.08
2022-08-05T03:28:51.966Z,1.60
2022-08-05T03:31:57.006Z,1.90
2022-08-05T03:34:51.314Z,2.03
2022-08-05T03:37:45.842Z,2.05
2022-08-05T03:40:33.770Z,1.90
2022-08-05T03:44:10.043Z,1.83
2022-08-05T03:46:32.580Z,2.13
2022-08-05T03:49:19.623Z,2.00
2022-08-05T03:52:50.588Z,2.10
2022-08-05T03:56:06.228Z,2.15
2022-08-05T03:58:34.005Z,2.15
2022-08-05T04:01:22.247Z,1.83
2022-08-05T04:04:11.048Z,1.83
2022-08-05T04:06:58.111Z,2.03
2022-08-05T04:09:53.821Z,2.03
2022-08-05T04:15:27.971Z,1.75
2022-08-05T04:18:25.593Z,1.98
2022-08-05T04:21:12.870Z,2.03
2022-08-05T04:24:22.516Z,1.75
2022-08-05T04:27:09.777Z,2.30
2022-08-05T04:29:56.609Z,2.15
2022-08-05T04:32:43.711Z,2.10
2022-08-05T04:36:11.229Z,1.83
2022-08-05T04:38:39.547Z,1.70
2022-08-05T04:41:34.083Z,2.03
2022-08-05T04:44:30.254Z,2.75
2022-08-05T04:47:20.127Z,2.30
2022-08-05T04:50:11.156Z,2.40
2022-08-05T04:52:58.587Z,2.97
2022-08-05T04:56:14.466Z,3.90
2022-08-05T04:58:52.998Z,3.75
2022-08-05T05:02:07.011Z,2.65
2022-08-05T05:04:49.737Z,2.60
2022-08-05T05:07:37.917Z,2.80
2022-08-05T05:10:33.915Z,2.40
2022-08-05T05:13:21.160Z,2.72
2022-08-05T05:16:08.146Z,2.42
2022-08-05T05:19:17.774Z,2.17
2022-08-05T05:22:03.559Z,2.10
2022-08-05T05:25:16.717Z,2.47
2022-08-05T05:30:51.135Z,2.40
2022-08-05T05:44:45.963Z,2.63
2022-08-05T05:49:33.511Z,2.60
2022-08-05T05:52:49.219Z,4.10
2022-08-05T05:55:51.655Z,3.45
2022-08-05T05:58:46.110Z,3.40
2022-08-05T06:01:39.341Z,3.13
2022-08-05T06:04:27.069Z,3.40
2022-08-05T06:07:14.158Z,3.40
2022-08-05T06:10:04.422Z,3.70
2022-08-05T06:12:52.872Z,3.00
2022-08-05T06:16:30.547Z,2.80
2022-08-05T06:18:46.887Z,3.00
2022-08-05T06:21:41.765Z,3.17
2022-08-05T06:24:41.939Z,3.40
2022-08-05T06:28:12.136Z,3.47
2022-08-05T06:30:43.064Z,4.38
2022-08-05T06:33:33.306Z,5.05
2022-08-05T06:36:57.256Z,4.75
2022-08-05T06:39:44.640Z,4.60
2022-08-05T06:42:31.692Z,4.63
2022-08-05T06:45:21.067Z,4.20
2022-08-05T06:48:36.010Z,3.47
2022-08-05T06:51:26.641Z,3.63
2022-08-05T06:54:19.010Z,3.55
2022-08-05T07:00:13.664Z,3.60
2022-08-05T07:03:11.819Z,3.40
2022-08-05T07:05:58.882Z,3.58
2022-08-05T07:08:48.006Z,3.45
2022-08-05T07:11:39.655Z,3.20
2022-08-05T07:14:46.155Z,3.55
2022-08-05T07:17:56.990Z,3.58
2022-08-05T07:20:40.553Z,3.70
2022-08-05T07:23:29.673Z,3.40
2022-08-05T07:26:22.578Z,3.65
2022-08-05T07:29:10.439Z,3.70
2022-08-05T07:31:59.502Z,3.67
2022-08-05T07:34:50.898Z,3.70
2022-08-05T07:37:45.128Z,3.10
2022-08-05T07:40:34.382Z,3.40
2022-08-05T07:43:22.484Z,3.50
2022-08-05T07:46:20.741Z,3.40
2022-08-05T07:49:12.586Z,3.50
2022-08-05T07:52:01.215Z,3.20
2022-08-05T07:54:49.204Z,3.28
2022-08-05T07:57:51.175Z,3.03
2022-08-05T08:00:44.429Z,3.75
2022-08-05T08:03:44.277Z,3.08
2022-08-05T08:06:32.840Z,3.00
2022-08-05T08:09:20.459Z,2.92
2022-08-05T08:12:20.956Z,2.60
2022-08-05T08:15:16.186Z,3.22
2022-08-05T08:18:08.158Z,3.15
2022-08-05T08:21:03.517Z,3.08
2022-08-05T08:24:02.892Z,3.10
2022-08-05T08:26:52.430Z,3.10
2022-08-05T08:30:05.602Z,2.70
2022-08-05T08:32:46.672Z,2.70
2022-08-05T08:35:41.086Z,2.80
2022-08-05T08:38:35.513Z,3.00
2022-08-05T08:41:51.055Z,2.63
2022-08-05T08:45:23.067Z,2.47
2022-08-05T08:51:03.583Z,2.63
2022-08-05T08:53:56.495Z,2.88
2022-08-05T08:56:47.386Z,2.80
2022-08-05T08:59:38.421Z,2.72
2022-08-05T09:02:29.058Z,2.17
2022-08-05T09:05:18.134Z,2.83
2022-08-05T09:08:05.669Z,2.75
2022-08-05T09:10:57.051Z,2.83
2022-08-05T09:14:09.786Z,2.90
2022-08-05T09:16:51.898Z,2.95
2022-08-05T09:20:01.441Z,2.40
2022-08-05T09:26:10.637Z,2.70
2022-08-05T09:29:09.147Z,2.72
2022-08-05T09:32:40.331Z,3.30
2022-08-05T09:35:26.295Z,2.88
2022-08-05T09:38:18.485Z,3.00
2022-08-05T09:41:16.212Z,2.40
2022-08-05T09:44:03.828Z,2.58
2022-08-05T09:47:10.460Z,2.55
2022-08-05T09:50:03.556Z,2.80
2022-08-05T09:52:57.984Z,2.60
2022-08-05T09:55:57.336Z,2.55
2022-08-05T09:58:56.945Z,2.80
2022-08-05T10:01:47.178Z,3.58
2022-08-05T10:04:39.662Z,2.70
2022-08-05T10:08:35.112Z,2.40
2022-08-05T10:11:00.016Z,2.60
2022-08-05T10:13:48.337Z,2.40
2022-08-05T10:16:37.831Z,2.70
2022-08-05T10:20:03.237Z,2.80
2022-08-05T10:22:37.988Z,2.85
2022-08-05T10:25:36.187Z,3.15
2022-08-05T10:28:30.250Z,2.90
2022-08-05T10:32:47.740Z,3.00
2022-08-05T10:34:25.774Z,2.92
2022-08-05T10:37:18.670Z,2.97
2022-08-05T10:40:19.543Z,2.70
2022-08-05T10:43:13.658Z,2.72
2022-08-05T10:46:06.435Z,3.20
2022-08-05T10:49:08.076Z,3.20
2022-08-05T10:52:05.404Z,2.90
2022-08-05T10:55:07.473Z,3.17
2022-08-05T11:01:15.887Z,3.13
2022-08-05T11:04:21.494Z,2.75
2022-08-05T11:07:11.988Z,3.50
2022-08-05T11:10:03.960Z,3.08
2022-08-05T11:12:58.445Z,3.50
2022-08-05T11:16:01.307Z,3.28
2022-08-05T11:20:10.821Z,2.75
2022-08-05T11:22:42.255Z,3.13
2022-08-05T11:28:43.149Z,3.03
2022-08-05T11:31:57.638Z,2.55
2022-08-05T11:34:50.985Z,2.90
2022-08-05T11:38:29.277Z,3.22
2022-08-05T11:41:35.021Z,2.97
2022-08-05T11:44:40.506Z,3.45
2022-08-05T11:47:49.750Z,3.53
2022-08-05T11:50:38.451Z,3.15
2022-08-05T11:53:25.470Z,2.70
2022-08-05T11:56:12.644Z,2.80
2022-08-05T11:59:00.528Z,2.83
2022-08-05T12:01:55.489Z,2.92
2022-08-05T12:08:03.757Z,2.95
2022-08-05T12:10:58.806Z,3.15
2022-08-05T12:14:04.047Z,2.90
2022-08-05T12:16:51.573Z,3.63
2022-08-05T12:20:26.398Z,2.92
2022-08-05T12:23:12.733Z,2.75
2022-08-05T12:26:00.270Z,2.63
2022-08-05T12:28:47.242Z,3.00
2022-08-05T12:31:46.143Z,3.20
2022-08-05T12:34:38.464Z,3.28
2022-08-05T12:37:29.983Z,2.75
2022-08-05T12:40:26.300Z,2.83
2022-08-05T12:43:20.692Z,3.10
2022-08-05T12:46:28.105Z,2.80
2022-08-05T12:49:19.101Z,2.67
2022-08-05T12:52:23.922Z,2.85
2022-08-05T12:55:25.578Z,2.95
2022-08-05T12:58:49.001Z,2.75
2022-08-05T13:02:03.686Z,3.55
2022-08-05T13:04:52.253Z,2.90
2022-08-05T13:07:59.944Z,2.85
2022-08-05T13:10:50.645Z,2.78
2022-08-05T13:14:06.266Z,2.92
2022-08-05T13:16:49.736Z,3.15
2022-08-05T13:19:51.631Z,3.00
2022-08-05T13:22:43.360Z,3.15
2022-08-05T13:25:52.542Z,3.22
2022-08-05T13:28:40.937Z,2.92
2022-08-05T13:31:34.013Z,3.13
2022-08-05T13:34:38.376Z,3.00
2022-08-05T13:37:34.968Z,2.65
2022-08-05T13:40:36.999Z,3.15
2022-08-05T13:43:45.618Z,2.95
2022-08-05T13:49:38.339Z,3.15
2022-08-05T13:52:35.330Z,2.78
2022-08-05T13:55:40.849Z,2.83
2022-08-05T13:58:30.722Z,2.97
2022-08-05T14:01:18.252Z,2.70
2022-08-05T14:04:23.855Z,2.80
2022-08-05T14:07:25.653Z,2.90
2022-08-05T14:10:28.425Z,3.10
2022-08-05T14:13:16.386Z,2.88
2022-08-05T14:16:06.348Z,2.95
2022-08-05T14:18:57.791Z,2.97
2022-08-05T14:22:11.528Z,3.20
2022-08-05T14:24:58.858Z,3.03
2022-08-05T14:27:48.460Z,2.97
2022-08-05T14:30:35.635Z,3.22
2022-08-05T14:33:23.871Z,2.53
2022-08-05T14:36:11.357Z,2.80
2022-08-05T14:38:58.852Z,3.08
2022-08-05T14:42:15.885Z,3.65
2022-08-05T14:44:57.115Z,3.20
2022-08-05T14:48:02.679Z,3.03
2022-08-05T14:50:51.399Z,3.15
2022-08-05T14:53:44.429Z,2.80
2022-08-05T14:56:31.837Z,2.70
2022-08-05T14:59:21.326Z,2.90
2022-08-05T15:02:15.777Z,2.90
2022-08-05T15:08:12.274Z,2.80
2022-08-05T15:11:04.346Z,3.03
2022-08-05T15:13:53.164Z,2.88
2022-08-05T15:16:40.446Z,2.83
2022-08-05T15:19:27.450Z,2.80
2022-08-05T15:22:16.203Z,2.78
2022-08-05T15:25:11.821Z,2.53
2022-08-05T15:28:01.802Z,2.60
2022-08-05T15:30:51.555Z,2.70
2022-08-05T15:34:04.376Z,3.60
2022-08-05T15:36:47.280Z,2.75
2022-08-05T15:40:58.699Z,2.50
2022-08-05T15:42:57.668Z,2.60
2022-08-05T15:46:00.743Z,2.22
2022-08-05T15:48:52.832Z,1.90
2022-08-05T15:52:12.887Z,2.30
2022-08-05T15:54:55.515Z,2.03
2022-08-05T15:57:45.077Z,1.95
2022-08-05T16:00:50.921Z,2.17
2022-08-05T16:03:41.103Z,2.13
2022-08-05T16:06:28.222Z,2.15
2022-08-05T16:09:15.638Z,1.85
2022-08-05T16:12:03.379Z,2.15
2022-08-05T16:14:50.466Z,1.83
2022-08-05T16:17:37.460Z,2.42
2022-08-05T16:20:24.663Z,2.55
2022-08-05T16:23:11.761Z,2.35
2022-08-05T16:26:06.629Z,2.53
2022-08-05T16:28:55.282Z,2.50
2022-08-05T16:31:56.993Z,2.35
2022-08-05T16:34:47.491Z,2.45
2022-08-05T16:38:02.446Z,2.80
2022-08-05T16:40:51.636Z,2.70
2022-08-05T16:43:42.906Z,2.72
2022-08-05T16:46:31.235Z,2.70
2022-08-05T16:49:18.983Z,2.40
2022-08-05T16:52:07.736Z,2.53
2022-08-05T16:54:54.954Z,2.97
2022-08-05T16:57:53.230Z,2.92
2022-08-05T17:00:48.148Z,2.70
2022-08-05T17:03:36.661Z,2.60
2022-08-05T17:06:24.762Z,2.42
2022-08-05T17:09:12.102Z,2.65
2022-08-05T17:12:01.212Z,2.80
2022-08-05T17:17:42.179Z,2.90
2022-08-05T17:20:29.898Z,2.50
2022-08-05T17:24:03.251Z,2.80
2022-08-05T17:26:24.470Z,2.72
2022-08-05T17:29:12.817Z,3.10
2022-08-05T17:32:00.382Z,3.08
2022-08-05T17:34:48.476Z,2.60
2022-08-05T17:37:40.149Z,2.65
2022-08-05T17:40:32.753Z,2.63
2022-08-05T17:43:46.995Z,2.20
2022-08-05T17:46:27.010Z,2.60
2022-08-05T17:49:13.972Z,2.22
2022-08-05T17:52:01.976Z,2.80
2022-08-05T17:54:48.942Z,2.20
2022-08-05T17:57:43.441Z,2.40
2022-08-05T18:00:35.665Z,2.03
2022-08-05T18:03:55.887Z,2.30
2022-08-05T18:06:38.367Z,2.25
2022-08-05T18:09:25.473Z,2.10
2022-08-05T18:12:32.412Z,2.30
2022-08-05T18:15:21.236Z,2.38
2022-08-05T18:18:11.423Z,2.60
2022-08-05T18:20:58.651Z,2.58
2022-08-05T18:23:48.611Z,2.35
2022-08-05T18:26:35.823Z,2.80
2022-08-05T18:29:40.341Z,2.55
2022-08-05T18:32:29.687Z,2.40
2022-08-05T18:35:17.251Z,2.55
2022-08-05T18:38:05.016Z,2.53
2022-08-05T18:41:55.217Z,2.20
2022-08-05T18:44:05.595Z,2.67
2022-08-05T18:46:53.528Z,2.60
2022-08-05T18:50:00.215Z,2.28
2022-08-05T18:52:51.113Z,2.47
2022-08-05T18:55:38.725Z,2.38
2022-08-05T18:58:28.932Z,2.35
2022-08-05T19:01:18.251Z,2.58
2022-08-05T19:04:05.613Z,2.78
2022-08-05T19:06:53.839Z,3.03
2022-08-05T19:09:41.530Z,2.67
2022-08-05T19:12:32.431Z,2.10
2022-08-05T19:15:57.333Z,2.70
2022-08-05T19:18:27.216Z,2.83
2022-08-05T19:21:15.745Z,2.95
2022-08-05T19:24:08.989Z,2.70
2022-08-05T19:26:59.839Z,2.90
2022-08-05T19:29:51.970Z,2.45
2022-08-05T19:32:38.921Z,2.78
2022-08-05T19:35:25.962Z,2.63
2022-08-05T19:38:33.003Z,3.13
2022-08-05T19:41:58.310Z,2.83
2022-08-05T19:44:29.689Z,2.80
2022-08-05T19:47:17.449Z,3.03
2022-08-05T19:50:04.866Z,2.53
2022-08-05T19:52:54.854Z,2.72
2022-08-05T19:56:14.630Z,3.05
2022-08-05T19:58:53.729Z,3.00
2022-08-05T20:01:41.285Z,2.53
2022-08-05T20:04:30.917Z,2.65
2022-08-05T20:07:47.157Z,2.90
2022-08-05T20:10:26.139Z,2.85
2022-08-05T20:13:13.219Z,2.80
2022-08-05T20:16:04.189Z,2.90
2022-08-05T20:18:55.327Z,2.90
2022-08-05T20:21:43.463Z,2.78
2022-08-05T20:24:32.973Z,2.65
2022-08-05T20:27:26.621Z,3.10
2022-08-05T20:30:14.304Z,3.20
2022-08-05T20:33:05.399Z,3.00
2022-08-05T20:35:58.418Z,2.97
2022-08-05T20:38:53.430Z,2.70
2022-08-05T20:44:37.837Z,2.67
2022-08-05T20:47:31.712Z,2.60
2022-08-05T20:50:19.362Z,2.40
2022-08-05T20:53:06.551Z,2.22
2022-08-05T20:56:08.571Z,2.60
2022-08-05T20:58:56.211Z,2.20
2022-08-05T21:01:47.779Z,3.10
2022-08-05T21:04:37.569Z,2.70
2022-08-05T21:07:24.847Z,2.42
2022-08-05T21:10:32.182Z,3.38
2022-08-05T21:13:26.411Z,2.92
2022-08-05T21:16:29.702Z,2.75
2022-08-05T21:19:17.625Z,2.83
2022-08-05T21:22:07.227Z,3.55
2022-08-05T21:24:56.755Z,2.72
2022-08-05T21:27:47.645Z,2.58
2022-08-05T21:30:40.387Z,2.72
2022-08-05T21:33:39.957Z,2.75
2022-08-05T21:36:30.196Z,2.50
2022-08-05T21:39:26.897Z,2.20
2022-08-05T21:42:41.064Z,2.70
2022-08-05T21:45:25.257Z,2.60
2022-08-05T21:48:31.783Z,2.60
2022-08-05T21:54:27.978Z,2.63
2022-08-05T21:57:33.283Z,2.70
2022-08-05T22:00:20.785Z,2.67
2022-08-05T22:03:14.532Z,2.30
2022-08-05T22:06:01.644Z,2.47
2022-08-05T22:08:51.807Z,2.30
2022-08-05T22:11:39.044Z,2.33
2022-08-05T22:14:35.639Z,1.50
2022-08-05T22:17:25.319Z,1.60
2022-08-05T22:20:14.838Z,1.80
2022-08-05T22:23:22.255Z,1.83
2022-08-05T22:26:28.149Z,1.73
2022-08-05T22:29:17.511Z,1.60
2022-08-05T22:32:06.321Z,1.70
2022-08-05T22:34:57.348Z,1.75
2022-08-05T22:37:59.013Z,1.70
2022-08-05T22:40:49.649Z,1.52
2022-08-05T22:43:41.751Z,1.80
2022-08-05T22:46:29.343Z,1.65
2022-08-05T22:49:46.245Z,1.95
2022-08-05T22:52:32.666Z,1.58
2022-08-05T22:55:23.396Z,1.70
2022-08-05T22:58:11.743Z,1.65
2022-08-05T23:01:02.055Z,1.73
2022-08-05T23:03:59.152Z,1.58
2022-08-05T23:06:47.661Z,1.50
2022-08-05T23:09:57.637Z,1.80
2022-08-05T23:12:43.816Z,2.20
2022-08-05T23:15:35.222Z,1.88
2022-08-05T23:18:23.355Z,2.38
2022-08-05T23:21:10.551Z,1.85
2022-08-05T23:23:57.481Z,1.70
2022-08-05T23:26:45.359Z,2.25
2022-08-05T23:29:34.946Z,1.70
2022-08-05T23:32:23.990Z,1.75
2022-08-05T23:35:11.288Z,2.05
2022-08-05T23:37:58.502Z,2.33
2022-08-05T23:40:49.336Z,1.83
2022-08-05T23:44:04.755Z,1.70
2022-08-05T23:46:44.379Z,1.80
2022-08-05T23:49:35.574Z,2.03
2022-08-05T23:52:26.688Z,2.40
2022-08-05T23:55:15.054Z,1.83
2022-08-05T23:58:02.020Z,2.00
